sensor_id;sensor_type;location;lat;lon;timestamp;temperature;humidity
921;DHT22;447;51.332;6.778;2022-07-21T00:01:50;30.20;60.80
921;DHT22;447;51.332;6.778;2022-07-21T00:04:17;30.20;60.90
921;DHT22;447;51.332;6.778;2022-07-21T00:06:45;30.10;60.90
921;DHT22;447;51.332;6.778;2022-07-21T00:09:12;30.10;61.00
921;DHT22;447;51.332;6.778;2022-07-21T00:11:41;30.10;61.10
921;DHT22;447;51.332;6.778;2022-07-21T00:14:13;30.10;61.10
921;DHT22;447;51.332;6.778;2022-07-21T00:16:43;30.10;61.10
921;DHT22;447;51.332;6.778;2022-07-21T00:19:09;30.10;61.20
921;DHT22;447;51.332;6.778;2022-07-21T00:21:40;30.00;61.20
921;DHT22;447;51.332;6.778;2022-07-21T00:24:10;30.00;61.20
921;DHT22;447;51.332;6.778;2022-07-21T00:26:41;30.00;61.20
921;DHT22;447;51.332;6.778;2022-07-21T00:29:11;29.90;61.20
921;DHT22;447;51.332;6.778;2022-07-21T00:31:39;30.00;61.30
921;DHT22;447;51.332;6.778;2022-07-21T00:34:08;29.90;61.20
921;DHT22;447;51.332;6.778;2022-07-21T00:36:34;29.90;61.30
921;DHT22;447;51.332;6.778;2022-07-21T00:39:05;29.90;61.40
921;DHT22;447;51.332;6.778;2022-07-21T00:41:35;29.80;61.40
921;DHT22;447;51.332;6.778;2022-07-21T00:44:01;29.80;61.50
921;DHT22;447;51.332;6.778;2022-07-21T00:46:29;29.80;61.60
921;DHT22;447;51.332;6.778;2022-07-21T00:48:56;29.80;62.50
921;DHT22;447;51.332;6.778;2022-07-21T00:51:22;29.80;61.60
921;DHT22;447;51.332;6.778;2022-07-21T00:53:53;29.70;61.60
921;DHT22;447;51.332;6.778;2022-07-21T00:56:23;29.70;61.60
921;DHT22;447;51.332;6.778;2022-07-21T00:58:51;29.70;61.80
921;DHT22;447;51.332;6.778;2022-07-21T01:01:17;29.70;61.90
921;DHT22;447;51.332;6.778;2022-07-21T01:03:49;29.70;61.90
921;DHT22;447;51.332;6.778;2022-07-21T01:06:17;29.70;61.90
921;DHT22;447;51.332;6.778;2022-07-21T01:08:45;29.60;61.80
921;DHT22;447;51.332;6.778;2022-07-21T01:11:12;29.60;61.90
921;DHT22;447;51.332;6.778;2022-07-21T01:13:40;29.60;62.00
921;DHT22;447;51.332;6.778;2022-07-21T01:16:12;29.60;62.20
921;DHT22;447;51.332;6.778;2022-07-21T01:18:38;29.60;62.20
921;DHT22;447;51.332;6.778;2022-07-21T01:23:55;29.50;62.30
921;DHT22;447;51.332;6.778;2022-07-21T01:26:21;29.50;62.30
921;DHT22;447;51.332;6.778;2022-07-21T01:28:49;29.50;62.40
921;DHT22;447;51.332;6.778;2022-07-21T01:31:15;29.40;62.30
921;DHT22;447;51.332;6.778;2022-07-21T01:33:44;29.50;62.40
921;DHT22;447;51.332;6.778;2022-07-21T01:36:12;29.40;62.40
921;DHT22;447;51.332;6.778;2022-07-21T01:38:41;29.40;62.50
921;DHT22;447;51.332;6.778;2022-07-21T01:41:28;29.40;62.70
921;DHT22;447;51.332;6.778;2022-07-21T01:44:08;29.40;62.70
921;DHT22;447;51.332;6.778;2022-07-21T01:46:37;29.30;62.60
921;DHT22;447;51.332;6.778;2022-07-21T01:49:07;29.30;62.70
921;DHT22;447;51.332;6.778;2022-07-21T01:51:33;29.30;62.70
921;DHT22;447;51.332;6.778;2022-07-21T01:54:05;29.30;62.80
921;DHT22;447;51.332;6.778;2022-07-21T01:56:35;29.30;62.90
921;DHT22;447;51.332;6.778;2022-07-21T01:59:05;29.30;62.90
921;DHT22;447;51.332;6.778;2022-07-21T02:01:32;29.20;62.90
921;DHT22;447;51.332;6.778;2022-07-21T02:04:04;29.20;63.00
921;DHT22;447;51.332;6.778;2022-07-21T02:06:33;29.20;63.00
921;DHT22;447;51.332;6.778;2022-07-21T02:09:00;29.20;63.10
921;DHT22;447;51.332;6.778;2022-07-21T02:11:29;29.20;63.20
921;DHT22;447;51.332;6.778;2022-07-21T02:13:55;29.10;63.30
921;DHT22;447;51.332;6.778;2022-07-21T02:16:21;29.10;63.30
921;DHT22;447;51.332;6.778;2022-07-21T02:18:49;29.10;63.40
921;DHT22;447;51.332;6.778;2022-07-21T02:21:16;29.10;63.40
921;DHT22;447;51.332;6.778;2022-07-21T02:23:42;29.00;63.40
921;DHT22;447;51.332;6.778;2022-07-21T02:26:10;29.00;63.50
921;DHT22;447;51.332;6.778;2022-07-21T02:28:41;29.00;63.50
921;DHT22;447;51.332;6.778;2022-07-21T02:31:07;29.00;63.60
921;DHT22;447;51.332;6.778;2022-07-21T02:33:38;29.00;63.80
921;DHT22;447;51.332;6.778;2022-07-21T02:36:07;29.00;63.80
921;DHT22;447;51.332;6.778;2022-07-21T02:38:33;28.90;63.80
921;DHT22;447;51.332;6.778;2022-07-21T02:41:02;28.90;63.80
921;DHT22;447;51.332;6.778;2022-07-21T02:43:28;28.90;63.80
921;DHT22;447;51.332;6.778;2022-07-21T02:45:56;28.90;64.00
921;DHT22;447;51.332;6.778;2022-07-21T02:48:23;28.90;64.10
921;DHT22;447;51.332;6.778;2022-07-21T02:50:51;28.90;64.10
921;DHT22;447;51.332;6.778;2022-07-21T02:53:21;28.90;64.10
921;DHT22;447;51.332;6.778;2022-07-21T02:55:50;28.80;64.10
921;DHT22;447;51.332;6.778;2022-07-21T02:58:27;28.80;64.20
921;DHT22;447;51.332;6.778;2022-07-21T03:01:05;28.80;64.30
921;DHT22;447;51.332;6.778;2022-07-21T03:03:36;28.80;64.40
921;DHT22;447;51.332;6.778;2022-07-21T03:06:06;28.80;64.40
921;DHT22;447;51.332;6.778;2022-07-21T03:08:35;28.70;65.10
921;DHT22;447;51.332;6.778;2022-07-21T03:11:02;28.70;64.40
921;DHT22;447;51.332;6.778;2022-07-21T03:13:28;28.70;64.50
921;DHT22;447;51.332;6.778;2022-07-21T03:15:55;28.70;64.60
921;DHT22;447;51.332;6.778;2022-07-21T03:18:26;28.70;64.60
921;DHT22;447;51.332;6.778;2022-07-21T03:20:54;28.70;64.60
921;DHT22;447;51.332;6.778;2022-07-21T03:23:20;28.60;64.70
921;DHT22;447;51.332;6.778;2022-07-21T03:25:46;28.60;64.80
921;DHT22;447;51.332;6.778;2022-07-21T03:28:14;28.60;64.90
921;DHT22;447;51.332;6.778;2022-07-21T03:30:40;28.50;64.80
921;DHT22;447;51.332;6.778;2022-07-21T03:33:06;28.60;64.90
921;DHT22;447;51.332;6.778;2022-07-21T03:35:37;28.50;65.00
921;DHT22;447;51.332;6.778;2022-07-21T03:38:04;28.50;65.00
921;DHT22;447;51.332;6.778;2022-07-21T03:40:33;28.50;65.00
921;DHT22;447;51.332;6.778;2022-07-21T03:43:05;28.50;65.20
921;DHT22;447;51.332;6.778;2022-07-21T03:45:35;28.50;65.20
921;DHT22;447;51.332;6.778;2022-07-21T03:48:05;28.50;65.50
921;DHT22;447;51.332;6.778;2022-07-21T03:50:36;28.40;65.10
921;DHT22;447;51.332;6.778;2022-07-21T03:53:08;28.40;65.00
921;DHT22;447;51.332;6.778;2022-07-21T03:55:35;28.40;65.30
921;DHT22;447;51.332;6.778;2022-07-21T03:58:04;28.40;65.50
921;DHT22;447;51.332;6.778;2022-07-21T04:00:39;28.40;65.50
921;DHT22;447;51.332;6.778;2022-07-21T04:03:06;28.30;65.70
921;DHT22;447;51.332;6.778;2022-07-21T04:05:33;28.30;65.70
921;DHT22;447;51.332;6.778;2022-07-21T04:08:02;28.30;65.80
921;DHT22;447;51.332;6.778;2022-07-21T04:10:30;28.30;66.00
921;DHT22;447;51.332;6.778;2022-07-21T04:12:58;28.30;66.10
921;DHT22;447;51.332;6.778;2022-07-21T04:15:25;28.20;65.90
921;DHT22;447;51.332;6.778;2022-07-21T04:17:54;28.20;65.90
921;DHT22;447;51.332;6.778;2022-07-21T04:20:20;28.20;65.90
921;DHT22;447;51.332;6.778;2022-07-21T04:22:48;28.20;65.90
921;DHT22;447;51.332;6.778;2022-07-21T04:25:19;28.10;66.00
921;DHT22;447;51.332;6.778;2022-07-21T04:28:16;28.10;66.10
921;DHT22;447;51.332;6.778;2022-07-21T04:30:42;28.10;66.30
921;DHT22;447;51.332;6.778;2022-07-21T04:33:08;28.10;66.10
921;DHT22;447;51.332;6.778;2022-07-21T04:35:34;28.10;66.10
921;DHT22;447;51.332;6.778;2022-07-21T04:38:01;28.00;66.10
921;DHT22;447;51.332;6.778;2022-07-21T04:40:27;28.00;66.10
921;DHT22;447;51.332;6.778;2022-07-21T04:42:53;28.00;66.30
921;DHT22;447;51.332;6.778;2022-07-21T04:45:20;28.00;66.10
921;DHT22;447;51.332;6.778;2022-07-21T04:47:53;28.00;66.40
921;DHT22;447;51.332;6.778;2022-07-21T04:50:24;28.00;66.70
921;DHT22;447;51.332;6.778;2022-07-21T04:52:50;27.90;66.50
921;DHT22;447;51.332;6.778;2022-07-21T04:55:17;27.90;66.50
921;DHT22;447;51.332;6.778;2022-07-21T04:57:48;27.90;66.40
921;DHT22;447;51.332;6.778;2022-07-21T05:00:17;27.90;66.60
921;DHT22;447;51.332;6.778;2022-07-21T05:02:44;27.90;67.10
921;DHT22;447;51.332;6.778;2022-07-21T05:05:12;27.90;67.40
921;DHT22;447;51.332;6.778;2022-07-21T05:07:39;27.90;67.20
921;DHT22;447;51.332;6.778;2022-07-21T05:10:12;27.90;67.20
921;DHT22;447;51.332;6.778;2022-07-21T05:12:38;27.90;67.10
921;DHT22;447;51.332;6.778;2022-07-21T05:15:11;27.80;67.40
921;DHT22;447;51.332;6.778;2022-07-21T05:17:39;27.80;67.70
921;DHT22;447;51.332;6.778;2022-07-21T05:20:08;27.80;67.80
921;DHT22;447;51.332;6.778;2022-07-21T05:22:35;27.70;67.70
921;DHT22;447;51.332;6.778;2022-07-21T05:25:02;27.80;68.80
921;DHT22;447;51.332;6.778;2022-07-21T05:27:32;27.80;68.20
921;DHT22;447;51.332;6.778;2022-07-21T05:29:59;27.70;67.90
921;DHT22;447;51.332;6.778;2022-07-21T05:32:27;27.70;67.90
921;DHT22;447;51.332;6.778;2022-07-21T05:34:53;27.70;68.00
921;DHT22;447;51.332;6.778;2022-07-21T05:37:23;27.60;67.90
921;DHT22;447;51.332;6.778;2022-07-21T05:39:49;27.60;67.90
921;DHT22;447;51.332;6.778;2022-07-21T05:42:15;27.60;67.80
921;DHT22;447;51.332;6.778;2022-07-21T05:44:44;27.60;67.80
921;DHT22;447;51.332;6.778;2022-07-21T05:47:12;27.60;67.90
921;DHT22;447;51.332;6.778;2022-07-21T05:49:38;27.60;68.20
921;DHT22;447;51.332;6.778;2022-07-21T05:52:04;27.60;68.30
921;DHT22;447;51.332;6.778;2022-07-21T05:54:37;27.60;68.20
921;DHT22;447;51.332;6.778;2022-07-21T05:57:06;27.50;68.30
921;DHT22;447;51.332;6.778;2022-07-21T05:59:32;27.50;68.60
921;DHT22;447;51.332;6.778;2022-07-21T06:01:59;27.50;68.80
921;DHT22;447;51.332;6.778;2022-07-21T06:04:25;27.50;68.90
921;DHT22;447;51.332;6.778;2022-07-21T06:06:51;27.40;69.10
921;DHT22;447;51.332;6.778;2022-07-21T06:09:19;27.40;69.20
921;DHT22;447;51.332;6.778;2022-07-21T06:11:45;27.40;68.80
921;DHT22;447;51.332;6.778;2022-07-21T06:14:11;27.40;68.80
921;DHT22;447;51.332;6.778;2022-07-21T06:16:37;27.40;68.80
921;DHT22;447;51.332;6.778;2022-07-21T06:19:07;27.40;69.40
921;DHT22;447;51.332;6.778;2022-07-21T06:21:34;27.30;69.20
921;DHT22;447;51.332;6.778;2022-07-21T06:24:00;27.30;69.00
921;DHT22;447;51.332;6.778;2022-07-21T06:26:27;27.30;68.90
921;DHT22;447;51.332;6.778;2022-07-21T06:28:53;27.30;68.90
921;DHT22;447;51.332;6.778;2022-07-21T06:31:22;27.30;68.80
921;DHT22;447;51.332;6.778;2022-07-21T06:33:48;27.30;68.90
921;DHT22;447;51.332;6.778;2022-07-21T06:36:19;27.30;69.20
921;DHT22;447;51.332;6.778;2022-07-21T06:38:47;27.30;69.60
921;DHT22;447;51.332;6.778;2022-07-21T06:41:15;27.30;69.90
921;DHT22;447;51.332;6.778;2022-07-21T06:43:42;27.30;69.90
921;DHT22;447;51.332;6.778;2022-07-21T06:46:08;27.20;69.90
921;DHT22;447;51.332;6.778;2022-07-21T06:48:34;27.20;69.70
921;DHT22;447;51.332;6.778;2022-07-21T06:51:00;27.20;70.00
921;DHT22;447;51.332;6.778;2022-07-21T06:53:31;27.20;70.00
921;DHT22;447;51.332;6.778;2022-07-21T06:55:57;27.20;69.60
921;DHT22;447;51.332;6.778;2022-07-21T06:58:25;27.10;69.40
921;DHT22;447;51.332;6.778;2022-07-21T07:00:53;27.10;69.40
921;DHT22;447;51.332;6.778;2022-07-21T07:03:24;27.10;70.60
921;DHT22;447;51.332;6.778;2022-07-21T07:05:52;27.10;70.10
921;DHT22;447;51.332;6.778;2022-07-21T07:08:18;27.10;70.10
921;DHT22;447;51.332;6.778;2022-07-21T07:10:47;27.00;70.00
921;DHT22;447;51.332;6.778;2022-07-21T07:13:15;27.00;69.80
921;DHT22;447;51.332;6.778;2022-07-21T07:15:45;27.00;69.80
921;DHT22;447;51.332;6.778;2022-07-21T07:18:11;27.00;70.50
921;DHT22;447;51.332;6.778;2022-07-21T07:20:37;27.00;70.20
921;DHT22;447;51.332;6.778;2022-07-21T07:23:04;27.00;70.10
921;DHT22;447;51.332;6.778;2022-07-21T07:25:32;27.00;70.10
921;DHT22;447;51.332;6.778;2022-07-21T07:27:58;27.00;70.30
921;DHT22;447;51.332;6.778;2022-07-21T07:30:25;27.00;70.30
921;DHT22;447;51.332;6.778;2022-07-21T07:32:51;26.90;70.00
921;DHT22;447;51.332;6.778;2022-07-21T07:35:19;26.90;69.80
921;DHT22;447;51.332;6.778;2022-07-21T07:37:48;26.90;69.90
921;DHT22;447;51.332;6.778;2022-07-21T07:40:19;26.90;70.10
921;DHT22;447;51.332;6.778;2022-07-21T07:42:46;26.90;69.90
921;DHT22;447;51.332;6.778;2022-07-21T07:45:15;26.90;69.90
921;DHT22;447;51.332;6.778;2022-07-21T07:47:42;26.90;69.80
921;DHT22;447;51.332;6.778;2022-07-21T07:50:12;26.90;69.90
921;DHT22;447;51.332;6.778;2022-07-21T07:52:40;26.90;69.70
921;DHT22;447;51.332;6.778;2022-07-21T07:55:07;26.90;69.70
921;DHT22;447;51.332;6.778;2022-07-21T07:57:40;26.90;69.90
921;DHT22;447;51.332;6.778;2022-07-21T08:00:09;26.90;69.80
921;DHT22;447;51.332;6.778;2022-07-21T08:02:39;26.80;70.10
921;DHT22;447;51.332;6.778;2022-07-21T08:05:07;26.80;70.10
921;DHT22;447;51.332;6.778;2022-07-21T08:07:39;26.80;70.20
921;DHT22;447;51.332;6.778;2022-07-21T08:10:07;26.80;70.20
921;DHT22;447;51.332;6.778;2022-07-21T08:12:33;26.80;70.00
921;DHT22;447;51.332;6.778;2022-07-21T08:15:03;26.80;69.60
921;DHT22;447;51.332;6.778;2022-07-21T08:17:34;26.80;69.60
921;DHT22;447;51.332;6.778;2022-07-21T08:20:00;26.80;69.40
921;DHT22;447;51.332;6.778;2022-07-21T08:22:26;26.80;69.60
921;DHT22;447;51.332;6.778;2022-07-21T08:24:57;26.80;69.70
921;DHT22;447;51.332;6.778;2022-07-21T08:27:23;26.80;69.70
921;DHT22;447;51.332;6.778;2022-07-21T08:29:54;26.70;69.40
921;DHT22;447;51.332;6.778;2022-07-21T08:32:21;26.70;69.60
921;DHT22;447;51.332;6.778;2022-07-21T08:34:49;26.70;69.40
921;DHT22;447;51.332;6.778;2022-07-21T08:37:19;26.70;69.10
921;DHT22;447;51.332;6.778;2022-07-21T08:39:46;26.70;69.10
921;DHT22;447;51.332;6.778;2022-07-21T08:42:14;26.70;69.20
921;DHT22;447;51.332;6.778;2022-07-21T08:44:43;26.70;69.30
921;DHT22;447;51.332;6.778;2022-07-21T08:47:11;26.70;69.00
921;DHT22;447;51.332;6.778;2022-07-21T08:49:40;26.70;68.80
921;DHT22;447;51.332;6.778;2022-07-21T08:52:09;26.70;69.10
921;DHT22;447;51.332;6.778;2022-07-21T08:54:40;26.70;69.00
921;DHT22;447;51.332;6.778;2022-07-21T08:57:09;26.70;68.90
921;DHT22;447;51.332;6.778;2022-07-21T08:59:40;26.70;69.00
921;DHT22;447;51.332;6.778;2022-07-21T09:02:32;26.70;69.20
921;DHT22;447;51.332;6.778;2022-07-21T09:05:00;26.70;69.20
921;DHT22;447;51.332;6.778;2022-07-21T09:07:26;26.60;68.80
921;DHT22;447;51.332;6.778;2022-07-21T09:09:59;26.70;68.80
921;DHT22;447;51.332;6.778;2022-07-21T09:12:26;26.70;68.80
921;DHT22;447;51.332;6.778;2022-07-21T09:15:14;26.60;68.50
921;DHT22;447;51.332;6.778;2022-07-21T09:17:43;26.60;68.50
921;DHT22;447;51.332;6.778;2022-07-21T09:20:34;26.70;68.60
921;DHT22;447;51.332;6.778;2022-07-21T09:23:24;26.70;68.70
921;DHT22;447;51.332;6.778;2022-07-21T09:25:56;26.60;68.80
921;DHT22;447;51.332;6.778;2022-07-21T09:28:30;26.60;68.80
921;DHT22;447;51.332;6.778;2022-07-21T09:30:59;26.60;68.70
921;DHT22;447;51.332;6.778;2022-07-21T09:33:42;26.60;68.60
921;DHT22;447;51.332;6.778;2022-07-21T09:36:16;26.60;68.80
921;DHT22;447;51.332;6.778;2022-07-21T09:38:53;26.60;68.80
921;DHT22;447;51.332;6.778;2022-07-21T09:41:26;26.60;68.80
921;DHT22;447;51.332;6.778;2022-07-21T09:43:55;26.60;68.80
921;DHT22;447;51.332;6.778;2022-07-21T09:46:29;26.60;68.70
921;DHT22;447;51.332;6.778;2022-07-21T09:49:00;26.60;68.80
921;DHT22;447;51.332;6.778;2022-07-21T09:51:34;26.60;68.70
921;DHT22;447;51.332;6.778;2022-07-21T09:54:07;26.60;68.60
921;DHT22;447;51.332;6.778;2022-07-21T09:56:36;26.60;68.70
921;DHT22;447;51.332;6.778;2022-07-21T09:59:07;26.60;68.30
921;DHT22;447;51.332;6.778;2022-07-21T10:01:33;26.60;68.30
921;DHT22;447;51.332;6.778;2022-07-21T10:04:04;26.60;68.30
921;DHT22;447;51.332;6.778;2022-07-21T10:06:37;26.60;68.50
921;DHT22;447;51.332;6.778;2022-07-21T10:09:06;26.60;68.40
921;DHT22;447;51.332;6.778;2022-07-21T10:11:34;26.60;68.40
921;DHT22;447;51.332;6.778;2022-07-21T10:14:02;26.60;68.40
921;DHT22;447;51.332;6.778;2022-07-21T10:16:30;26.60;68.50
921;DHT22;447;51.332;6.778;2022-07-21T10:22:08;26.50;68.50
921;DHT22;447;51.332;6.778;2022-07-21T10:24:38;26.60;68.60
921;DHT22;447;51.332;6.778;2022-07-21T10:27:10;26.50;68.40
921;DHT22;447;51.332;6.778;2022-07-21T10:29:55;26.50;68.20
921;DHT22;447;51.332;6.778;2022-07-21T10:32:33;26.50;68.00
921;DHT22;447;51.332;6.778;2022-07-21T10:35:25;26.50;68.00
921;DHT22;447;51.332;6.778;2022-07-21T10:37:52;26.50;68.20
921;DHT22;447;51.332;6.778;2022-07-21T10:42:47;26.50;68.20
921;DHT22;447;51.332;6.778;2022-07-21T10:45:40;26.50;68.50
921;DHT22;447;51.332;6.778;2022-07-21T10:48:08;26.50;69.20
921;DHT22;447;51.332;6.778;2022-07-21T10:50:39;26.50;69.20
921;DHT22;447;51.332;6.778;2022-07-21T10:53:17;26.50;70.00
921;DHT22;447;51.332;6.778;2022-07-21T10:55:51;26.50;70.30
921;DHT22;447;51.332;6.778;2022-07-21T11:01:03;26.50;70.00
921;DHT22;447;51.332;6.778;2022-07-21T11:03:30;26.50;70.60
921;DHT22;447;51.332;6.778;2022-07-21T11:06:17;26.50;70.60
921;DHT22;447;51.332;6.778;2022-07-21T11:08:45;26.40;71.00
921;DHT22;447;51.332;6.778;2022-07-21T11:11:26;26.40;71.50
921;DHT22;447;51.332;6.778;2022-07-21T11:24:32;26.40;72.50
921;DHT22;447;51.332;6.778;2022-07-21T11:27:06;26.30;72.70
921;DHT22;447;51.332;6.778;2022-07-21T11:29:34;26.30;72.80
921;DHT22;447;51.332;6.778;2022-07-21T11:32:09;26.30;73.00
921;DHT22;447;51.332;6.778;2022-07-21T11:35:04;26.30;72.80
921;DHT22;447;51.332;6.778;2022-07-21T11:37:34;26.30;72.10
921;DHT22;447;51.332;6.778;2022-07-21T11:40:28;26.30;72.00
921;DHT22;447;51.332;6.778;2022-07-21T11:42:55;26.30;71.90
921;DHT22;447;51.332;6.778;2022-07-21T11:45:24;26.30;72.90
921;DHT22;447;51.332;6.778;2022-07-21T11:47:57;26.30;73.40
921;DHT22;447;51.332;6.778;2022-07-21T11:50:28;26.30;72.50
921;DHT22;447;51.332;6.778;2022-07-21T11:52:56;26.30;72.30
921;DHT22;447;51.332;6.778;2022-07-21T11:55:27;26.30;72.40
921;DHT22;447;51.332;6.778;2022-07-21T11:57:53;26.30;73.20
921;DHT22;447;51.332;6.778;2022-07-21T12:00:29;26.30;72.90
921;DHT22;447;51.332;6.778;2022-07-21T12:03:31;26.30;72.30
921;DHT22;447;51.332;6.778;2022-07-21T12:06:01;26.30;72.10
921;DHT22;447;51.332;6.778;2022-07-21T12:08:30;26.30;72.30
921;DHT22;447;51.332;6.778;2022-07-21T12:11:07;26.30;72.10
921;DHT22;447;51.332;6.778;2022-07-21T12:13:57;26.30;72.20
921;DHT22;447;51.332;6.778;2022-07-21T12:16:24;26.30;72.30
921;DHT22;447;51.332;6.778;2022-07-21T12:19:22;26.20;72.90
921;DHT22;447;51.332;6.778;2022-07-21T12:21:52;26.20;72.50
921;DHT22;447;51.332;6.778;2022-07-21T12:24:19;26.30;72.70
921;DHT22;447;51.332;6.778;2022-07-21T12:26:47;26.30;72.70
921;DHT22;447;51.332;6.778;2022-07-21T12:29:27;26.20;72.60
921;DHT22;447;51.332;6.778;2022-07-21T12:31:55;26.20;72.80
921;DHT22;447;51.332;6.778;2022-07-21T12:34:24;26.20;72.90
921;DHT22;447;51.332;6.778;2022-07-21T12:36:53;26.20;73.30
921;DHT22;447;51.332;6.778;2022-07-21T12:39:24;26.20;73.20
921;DHT22;447;51.332;6.778;2022-07-21T12:42:26;26.20;74.00
921;DHT22;447;51.332;6.778;2022-07-21T12:44:55;26.20;74.00
921;DHT22;447;51.332;6.778;2022-07-21T12:47:22;26.20;74.50
921;DHT22;447;51.332;6.778;2022-07-21T12:52:23;26.20;75.00
921;DHT22;447;51.332;6.778;2022-07-21T12:54:50;26.10;74.80
921;DHT22;447;51.332;6.778;2022-07-21T12:57:21;26.20;76.00
921;DHT22;447;51.332;6.778;2022-07-21T12:59:47;26.10;76.20
921;DHT22;447;51.332;6.778;2022-07-21T13:02:13;26.10;75.80
921;DHT22;447;51.332;6.778;2022-07-21T13:04:42;26.10;76.70
921;DHT22;447;51.332;6.778;2022-07-21T13:07:10;26.10;77.40
921;DHT22;447;51.332;6.778;2022-07-21T13:09:37;26.10;77.10
921;DHT22;447;51.332;6.778;2022-07-21T13:12:03;26.10;77.20
921;DHT22;447;51.332;6.778;2022-07-21T13:14:31;26.10;76.40
921;DHT22;447;51.332;6.778;2022-07-21T13:17:00;26.10;76.10
921;DHT22;447;51.332;6.778;2022-07-21T13:19:31;26.00;76.40
921;DHT22;447;51.332;6.778;2022-07-21T13:21:57;26.00;77.10
921;DHT22;447;51.332;6.778;2022-07-21T13:24:23;26.00;76.50
921;DHT22;447;51.332;6.778;2022-07-21T13:26:49;26.00;76.30
921;DHT22;447;51.332;6.778;2022-07-21T13:29:38;26.00;76.60
921;DHT22;447;51.332;6.778;2022-07-21T13:32:06;26.00;77.60
921;DHT22;447;51.332;6.778;2022-07-21T13:34:35;26.00;76.90
921;DHT22;447;51.332;6.778;2022-07-21T13:37:01;26.00;76.50
921;DHT22;447;51.332;6.778;2022-07-21T13:39:27;26.00;76.20
921;DHT22;447;51.332;6.778;2022-07-21T13:41:57;25.90;76.00
921;DHT22;447;51.332;6.778;2022-07-21T13:44:23;25.90;75.90
921;DHT22;447;51.332;6.778;2022-07-21T13:46:49;25.90;75.70
921;DHT22;447;51.332;6.778;2022-07-21T13:49:18;25.90;76.00
921;DHT22;447;51.332;6.778;2022-07-21T13:52:07;25.90;76.10
921;DHT22;447;51.332;6.778;2022-07-21T13:54:35;25.90;75.70
921;DHT22;447;51.332;6.778;2022-07-21T13:57:30;25.90;75.90
921;DHT22;447;51.332;6.778;2022-07-21T13:59:56;25.90;75.50
921;DHT22;447;51.332;6.778;2022-07-21T14:02:25;25.90;75.40
921;DHT22;447;51.332;6.778;2022-07-21T14:04:51;25.80;75.60
921;DHT22;447;51.332;6.778;2022-07-21T14:07:18;25.80;75.70
921;DHT22;447;51.332;6.778;2022-07-21T14:09:45;25.80;76.00
921;DHT22;447;51.332;6.778;2022-07-21T14:12:11;25.80;75.70
921;DHT22;447;51.332;6.778;2022-07-21T14:14:42;25.80;75.80
921;DHT22;447;51.332;6.778;2022-07-21T14:17:13;25.80;76.00
921;DHT22;447;51.332;6.778;2022-07-21T14:19:42;25.80;75.90
921;DHT22;447;51.332;6.778;2022-07-21T14:22:10;25.80;75.60
921;DHT22;447;51.332;6.778;2022-07-21T14:24:36;25.80;75.70
921;DHT22;447;51.332;6.778;2022-07-21T14:27:21;25.80;76.10
921;DHT22;447;51.332;6.778;2022-07-21T14:29:47;25.80;76.70
921;DHT22;447;51.332;6.778;2022-07-21T14:32:14;25.80;76.90
921;DHT22;447;51.332;6.778;2022-07-21T14:34:44;25.80;76.70
921;DHT22;447;51.332;6.778;2022-07-21T14:37:15;25.80;77.00
921;DHT22;447;51.332;6.778;2022-07-21T14:39:41;25.70;77.20
921;DHT22;447;51.332;6.778;2022-07-21T14:42:09;25.70;76.70
921;DHT22;447;51.332;6.778;2022-07-21T14:44:35;25.70;76.40
921;DHT22;447;51.332;6.778;2022-07-21T14:47:02;25.70;76.80
921;DHT22;447;51.332;6.778;2022-07-21T14:49:30;25.70;76.80
921;DHT22;447;51.332;6.778;2022-07-21T14:51:56;25.70;76.80
921;DHT22;447;51.332;6.778;2022-07-21T14:54:26;25.70;76.80
921;DHT22;447;51.332;6.778;2022-07-21T14:56:57;25.70;77.00
921;DHT22;447;51.332;6.778;2022-07-21T14:59:26;25.70;76.90
921;DHT22;447;51.332;6.778;2022-07-21T15:01:55;25.70;76.40
921;DHT22;447;51.332;6.778;2022-07-21T15:04:21;25.60;76.20
921;DHT22;447;51.332;6.778;2022-07-21T15:06:48;25.70;76.40
921;DHT22;447;51.332;6.778;2022-07-21T15:09:19;25.70;76.20
921;DHT22;447;51.332;6.778;2022-07-21T15:11:47;25.60;76.10
921;DHT22;447;51.332;6.778;2022-07-21T15:14:14;25.60;76.10
921;DHT22;447;51.332;6.778;2022-07-21T15:16:42;25.60;76.00
921;DHT22;447;51.332;6.778;2022-07-21T15:19:10;25.60;76.20
921;DHT22;447;51.332;6.778;2022-07-21T15:21:39;25.60;76.40
921;DHT22;447;51.332;6.778;2022-07-21T15:24:08;25.60;76.40
921;DHT22;447;51.332;6.778;2022-07-21T15:26:37;25.60;76.20
921;DHT22;447;51.332;6.778;2022-07-21T15:29:05;25.60;76.10
921;DHT22;447;51.332;6.778;2022-07-21T15:31:34;25.60;76.00
921;DHT22;447;51.332;6.778;2022-07-21T15:34:00;25.60;76.00
921;DHT22;447;51.332;6.778;2022-07-21T15:36:27;25.60;76.50
921;DHT22;447;51.332;6.778;2022-07-21T15:38:53;25.60;76.60
921;DHT22;447;51.332;6.778;2022-07-21T15:41:19;25.60;76.40
921;DHT22;447;51.332;6.778;2022-07-21T15:43:50;25.60;76.60
921;DHT22;447;51.332;6.778;2022-07-21T15:46:17;25.60;76.80
921;DHT22;447;51.332;6.778;2022-07-21T15:48:50;25.50;76.40
921;DHT22;447;51.332;6.778;2022-07-21T15:51:18;25.60;76.50
921;DHT22;447;51.332;6.778;2022-07-21T15:53:46;25.50;76.70
921;DHT22;447;51.332;6.778;2022-07-21T15:56:14;25.50;76.70
921;DHT22;447;51.332;6.778;2022-07-21T15:58:42;25.50;77.10
921;DHT22;447;51.332;6.778;2022-07-21T16:01:30;25.50;77.20
921;DHT22;447;51.332;6.778;2022-07-21T16:03:59;25.50;77.50
921;DHT22;447;51.332;6.778;2022-07-21T16:06:24;25.50;77.80
921;DHT22;447;51.332;6.778;2022-07-21T16:08:53;25.40;77.60
921;DHT22;447;51.332;6.778;2022-07-21T16:11:19;25.40;77.80
921;DHT22;447;51.332;6.778;2022-07-21T16:13:50;25.40;77.80
921;DHT22;447;51.332;6.778;2022-07-21T16:16:18;25.40;77.60
921;DHT22;447;51.332;6.778;2022-07-21T16:18:44;25.40;77.70
921;DHT22;447;51.332;6.778;2022-07-21T16:21:10;25.40;78.70
921;DHT22;447;51.332;6.778;2022-07-21T16:23:36;25.40;78.20
921;DHT22;447;51.332;6.778;2022-07-21T16:26:04;25.40;77.80
921;DHT22;447;51.332;6.778;2022-07-21T16:28:31;25.40;77.70
921;DHT22;447;51.332;6.778;2022-07-21T16:30:57;25.40;78.10
921;DHT22;447;51.332;6.778;2022-07-21T16:33:25;25.40;77.80
921;DHT22;447;51.332;6.778;2022-07-21T16:35:51;25.30;77.80
921;DHT22;447;51.332;6.778;2022-07-21T16:38:17;25.30;77.60
921;DHT22;447;51.332;6.778;2022-07-21T16:40:43;25.30;77.70
921;DHT22;447;51.332;6.778;2022-07-21T16:43:36;25.30;77.70
921;DHT22;447;51.332;6.778;2022-07-21T16:46:04;25.30;78.10
921;DHT22;447;51.332;6.778;2022-07-21T16:48:30;25.30;78.10
921;DHT22;447;51.332;6.778;2022-07-21T16:50:56;25.30;79.40
921;DHT22;447;51.332;6.778;2022-07-21T16:53:24;25.20;78.90
921;DHT22;447;51.332;6.778;2022-07-21T16:55:58;25.20;78.70
921;DHT22;447;51.332;6.778;2022-07-21T16:58:23;25.30;79.50
921;DHT22;447;51.332;6.778;2022-07-21T17:00:54;25.20;80.00
921;DHT22;447;51.332;6.778;2022-07-21T17:03:20;25.20;79.50
921;DHT22;447;51.332;6.778;2022-07-21T17:05:46;25.20;79.10
921;DHT22;447;51.332;6.778;2022-07-21T17:08:15;25.20;79.20
921;DHT22;447;51.332;6.778;2022-07-21T17:10:45;25.20;78.80
921;DHT22;447;51.332;6.778;2022-07-21T17:13:11;25.20;78.80
921;DHT22;447;51.332;6.778;2022-07-21T17:15:37;25.20;78.80